Airfield :
LOGIN :

Register | Disclaimer

   EN    FR    IT 

 










Legend :    VFR   Marginal VFR   IFR   Intensive IFR   Very Intensive IFR
Visi :
Ceiling :
>= 8 km
>= 3000ft
5 to 8 km
1000 to 3000 ft
1500m to 5 km
500 to 1000 ft
800 to 1500m
200 to 500 ft
< 800m
< 200 ft
Symbols :   Thunderstorms  Fog  Heavy snow  Heavy precipitations  Wind > 20 kt
SIGMETs :     Misc.  Thunderstorms  Icing  Turbulence  Mountain Waves  Volcanic Ashes






- Airport Elevation : 287 ft


LFRL - Lanveoc Poulmic

CURRENT METAR :
  • 241000Z AUTO 09008KT 5000 BR FEW007 SCT150 04/02 Q1021 NOSIG

EXPIRED METARs :
  • 240930Z AUTO 08008KT 040V110 4800 BR FEW008 BKN160 04/02 Q1021 BECMG 9999 NSW
  • 240900Z AUTO 08007KT 4700 BR FEW008 BKN170 03/01 Q1021 BECMG 9999 NSW
  • 240830Z AUTO 08007KT 050V110 4400 BR SCT009 SCT160 BKN180 03/01 Q1021 BECMG 9999 NSW
  • 240800Z AUTO 06011KT 4400 BR FEW008 SCT140 BKN160 03/02 Q1021 BECMG 9999 NSW
  • 240730Z AUTO 06011KT 5000 BR SCT008 BKN160 OVC180 03/02 Q1021 NOSIG

TAF TAF LFRL
Valid from the 24 at 06:00 until the 25 at 06:00 UTC


240500Z 2406/2506 05010KT CAVOK
TEMPO 2406/2408 4000 BR BKN007
BECMG 2418/2420 OVC010
TEMPO 2423/2506 3000 RADZ OVC003



MET'MAP, your aeronautical weather chart ! - Copyright ORBIFLY December 2007 - Disclaimer

ORBIFLY MET'MAP TEAM :

Programming & Development : Alexandra Zaïnal
Concept & original design : Baudouin d'Aumeries
Assistance for programming : Marc-Olivier Méhu
Technical & hardware support : Manuel Goepfert

Contact : metmap@orbifly.com




SOURCES & CREDITS :

   NOAA